sensor_id;sensor_type;location;lat;lon;timestamp;temperature;humidity
52643;DHT22;38531;53.296;6.614;2022-11-23T00:01:49;7.50;99.90
52643;DHT22;38531;53.296;6.614;2022-11-23T00:04:14;7.40;99.90
52643;DHT22;38531;53.296;6.614;2022-11-23T00:06:40;7.30;99.90
52643;DHT22;38531;53.296;6.614;2022-11-23T00:09:06;7.20;99.90
52643;DHT22;38531;53.296;6.614;2022-11-23T00:11:33;6.80;99.90
52643;DHT22;38531;53.296;6.614;2022-11-23T00:13:59;7.80;99.90
52643;DHT22;38531;53.296;6.614;2022-11-23T00:16:27;5.90;99.90
52643;DHT22;38531;53.296;6.614;2022-11-23T00:18:55;7.30;99.90
52643;DHT22;38531;53.296;6.614;2022-11-23T00:21:21;6.60;99.90
52643;DHT22;38531;53.296;6.614;2022-11-23T00:23:48;6.70;99.90
52643;DHT22;38531;53.296;6.614;2022-11-23T00:26:14;6.90;99.90
52643;DHT22;38531;53.296;6.614;2022-11-23T00:28:40;7.30;99.90
52643;DHT22;38531;53.296;6.614;2022-11-23T00:31:07;7.90;99.90
52643;DHT22;38531;53.296;6.614;2022-11-23T00:33:34;7.60;99.90
52643;DHT22;38531;53.296;6.614;2022-11-23T00:36:04;6.20;99.90
52643;DHT22;38531;53.296;6.614;2022-11-23T00:38:30;6.90;99.90
52643;DHT22;38531;53.296;6.614;2022-11-23T00:41:01;7.70;99.90
52643;DHT22;38531;53.296;6.614;2022-11-23T00:43:28;7.10;99.90
52643;DHT22;38531;53.296;6.614;2022-11-23T00:46:13;7.90;99.90
52643;DHT22;38531;53.296;6.614;2022-11-23T00:48:39;7.10;99.90
52643;DHT22;38531;53.296;6.614;2022-11-23T00:51:07;6.90;99.90
52643;DHT22;38531;53.296;6.614;2022-11-23T00:53:34;7.10;99.90
52643;DHT22;38531;53.296;6.614;2022-11-23T00:56:00;7.90;99.90
52643;DHT22;38531;53.296;6.614;2022-11-23T00:58:26;7.70;99.90
52643;DHT22;38531;53.296;6.614;2022-11-23T01:01:00;8.00;99.90
52643;DHT22;38531;53.296;6.614;2022-11-23T01:03:27;7.00;99.90
52643;DHT22;38531;53.296;6.614;2022-11-23T01:05:53;7.00;99.90
52643;DHT22;38531;53.296;6.614;2022-11-23T01:08:19;8.40;99.90
52643;DHT22;38531;53.296;6.614;2022-11-23T01:10:44;7.60;99.90
52643;DHT22;38531;53.296;6.614;2022-11-23T01:13:10;7.00;99.90
52643;DHT22;38531;53.296;6.614;2022-11-23T01:15:36;7.00;99.90
52643;DHT22;38531;53.296;6.614;2022-11-23T01:18:01;7.40;99.90
52643;DHT22;38531;53.296;6.614;2022-11-23T01:20:27;7.00;99.90
52643;DHT22;38531;53.296;6.614;2022-11-23T01:22:53;7.30;99.90
52643;DHT22;38531;53.296;6.614;2022-11-23T01:25:18;6.30;99.90
52643;DHT22;38531;53.296;6.614;2022-11-23T01:27:44;7.00;99.90
52643;DHT22;38531;53.296;6.614;2022-11-23T01:30:10;7.50;99.90
52643;DHT22;38531;53.296;6.614;2022-11-23T01:32:36;7.00;99.90
52643;DHT22;38531;53.296;6.614;2022-11-23T01:35:01;7.20;99.90
52643;DHT22;38531;53.296;6.614;2022-11-23T01:37:27;7.40;99.90
52643;DHT22;38531;53.296;6.614;2022-11-23T01:39:53;7.00;99.90
52643;DHT22;38531;53.296;6.614;2022-11-23T01:42:18;7.70;99.90
52643;DHT22;38531;53.296;6.614;2022-11-23T01:44:44;8.00;99.90
52643;DHT22;38531;53.296;6.614;2022-11-23T01:47:09;8.10;99.90
52643;DHT22;38531;53.296;6.614;2022-11-23T01:49:44;6.00;99.90
52643;DHT22;38531;53.296;6.614;2022-11-23T01:52:18;7.10;99.90
52643;DHT22;38531;53.296;6.614;2022-11-23T01:54:48;7.10;99.90
52643;DHT22;38531;53.296;6.614;2022-11-23T01:57:24;7.10;99.90
52643;DHT22;38531;53.296;6.614;2022-11-23T01:59:53;7.10;99.90
52643;DHT22;38531;53.296;6.614;2022-11-23T02:02:19;8.10;99.90
52643;DHT22;38531;53.296;6.614;2022-11-23T02:04:48;7.40;99.90
52643;DHT22;38531;53.296;6.614;2022-11-23T02:07:15;7.10;99.90
52643;DHT22;38531;53.296;6.614;2022-11-23T02:09:41;8.10;99.90
52643;DHT22;38531;53.296;6.614;2022-11-23T02:12:12;7.10;99.90
52643;DHT22;38531;53.296;6.614;2022-11-23T02:14:38;7.20;99.90
52643;DHT22;38531;53.296;6.614;2022-11-23T02:17:04;7.50;99.90
52643;DHT22;38531;53.296;6.614;2022-11-23T02:22:01;6.40;99.90
52643;DHT22;38531;53.296;6.614;2022-11-23T02:24:40;7.90;99.90
52643;DHT22;38531;53.296;6.614;2022-11-23T02:27:07;6.10;99.90
52643;DHT22;38531;53.296;6.614;2022-11-23T02:29:33;7.40;99.90
52643;DHT22;38531;53.296;6.614;2022-11-23T02:31:59;7.70;99.90
52643;DHT22;38531;53.296;6.614;2022-11-23T02:34:25;7.20;99.90
52643;DHT22;38531;53.296;6.614;2022-11-23T02:36:52;7.60;99.90
52643;DHT22;38531;53.296;6.614;2022-11-23T02:39:37;7.40;99.90
52643;DHT22;38531;53.296;6.614;2022-11-23T02:42:05;7.90;99.90
52643;DHT22;38531;53.296;6.614;2022-11-23T02:44:33;8.00;99.90
52643;DHT22;38531;53.296;6.614;2022-11-23T02:47:00;8.20;99.90
52643;DHT22;38531;53.296;6.614;2022-11-23T02:49:26;7.20;99.90
52643;DHT22;38531;53.296;6.614;2022-11-23T02:51:52;7.50;99.90
52643;DHT22;38531;53.296;6.614;2022-11-23T02:54:18;7.20;99.90
52643;DHT22;38531;53.296;6.614;2022-11-23T02:56:44;7.40;99.90
52643;DHT22;38531;53.296;6.614;2022-11-23T02:59:09;7.10;99.90
52643;DHT22;38531;53.296;6.614;2022-11-23T03:01:36;8.00;99.90
52643;DHT22;38531;53.296;6.614;2022-11-23T03:04:04;7.70;99.90
52643;DHT22;38531;53.296;6.614;2022-11-23T03:06:30;7.50;99.90
52643;DHT22;38531;53.296;6.614;2022-11-23T03:08:55;7.70;99.90
52643;DHT22;38531;53.296;6.614;2022-11-23T03:11:21;7.30;99.90
52643;DHT22;38531;53.296;6.614;2022-11-23T03:13:47;8.30;99.90
52643;DHT22;38531;53.296;6.614;2022-11-23T03:16:12;8.20;99.90
52643;DHT22;38531;53.296;6.614;2022-11-23T03:18:38;7.80;99.90
52643;DHT22;38531;53.296;6.614;2022-11-23T03:21:05;7.30;99.90
52643;DHT22;38531;53.296;6.614;2022-11-23T03:23:33;7.30;99.90
52643;DHT22;38531;53.296;6.614;2022-11-23T03:25:59;7.30;99.90
52643;DHT22;38531;53.296;6.614;2022-11-23T03:28:25;7.60;99.90
52643;DHT22;38531;53.296;6.614;2022-11-23T03:30:50;8.30;99.90
52643;DHT22;38531;53.296;6.614;2022-11-23T03:33:17;8.30;99.90
52643;DHT22;38531;53.296;6.614;2022-11-23T03:35:43;7.30;99.90
52643;DHT22;38531;53.296;6.614;2022-11-23T03:38:09;7.80;99.90
52643;DHT22;38531;53.296;6.614;2022-11-23T03:40:35;8.00;99.90
52643;DHT22;38531;53.296;6.614;2022-11-23T03:43:00;7.80;99.90
52643;DHT22;38531;53.296;6.614;2022-11-23T03:45:26;8.20;99.90
52643;DHT22;38531;53.296;6.614;2022-11-23T03:47:52;8.40;99.90
52643;DHT22;38531;53.296;6.614;2022-11-23T03:50:17;7.60;99.90
52643;DHT22;38531;53.296;6.614;2022-11-23T03:52:43;7.40;99.90
52643;DHT22;38531;53.296;6.614;2022-11-23T03:55:09;8.20;99.90
52643;DHT22;38531;53.296;6.614;2022-11-23T03:57:35;8.20;99.90
52643;DHT22;38531;53.296;6.614;2022-11-23T04:00:01;8.30;99.90
52643;DHT22;38531;53.296;6.614;2022-11-23T04:02:26;8.20;99.90
52643;DHT22;38531;53.296;6.614;2022-11-23T04:04:52;7.90;99.90
52643;DHT22;38531;53.296;6.614;2022-11-23T04:07:18;7.40;99.90
52643;DHT22;38531;53.296;6.614;2022-11-23T04:09:44;7.90;99.90
52643;DHT22;38531;53.296;6.614;2022-11-23T04:12:10;7.40;99.90
52643;DHT22;38531;53.296;6.614;2022-11-23T04:14:36;8.20;99.90
52643;DHT22;38531;53.296;6.614;2022-11-23T04:17:02;8.30;99.90
52643;DHT22;38531;53.296;6.614;2022-11-23T04:19:28;7.80;99.90
52643;DHT22;38531;53.296;6.614;2022-11-23T04:21:54;7.40;99.90
52643;DHT22;38531;53.296;6.614;2022-11-23T04:24:20;8.40;99.90
52643;DHT22;38531;53.296;6.614;2022-11-23T04:26:45;7.50;99.90
52643;DHT22;38531;53.296;6.614;2022-11-23T04:29:11;8.10;99.90
52643;DHT22;38531;53.296;6.614;2022-11-23T04:31:37;8.30;99.90
52643;DHT22;38531;53.296;6.614;2022-11-23T04:34:03;7.50;99.90
52643;DHT22;38531;53.296;6.614;2022-11-23T04:36:28;8.10;99.90
52643;DHT22;38531;53.296;6.614;2022-11-23T04:38:54;5.90;99.90
52643;DHT22;38531;53.296;6.614;2022-11-23T04:41:20;6.90;99.90
52643;DHT22;38531;53.296;6.614;2022-11-23T04:43:47;7.40;99.90
52643;DHT22;38531;53.296;6.614;2022-11-23T04:46:13;8.40;99.90
52643;DHT22;38531;53.296;6.614;2022-11-23T04:48:38;6.90;99.90
52643;DHT22;38531;53.296;6.614;2022-11-23T04:51:04;7.90;99.90
52643;DHT22;38531;53.296;6.614;2022-11-23T04:53:30;7.40;99.90
52643;DHT22;38531;53.296;6.614;2022-11-23T04:55:56;6.50;99.90
52643;DHT22;38531;53.296;6.614;2022-11-23T04:58:22;8.20;99.90
52643;DHT22;38531;53.296;6.614;2022-11-23T05:00:48;7.40;99.90
52643;DHT22;38531;53.296;6.614;2022-11-23T05:03:13;7.70;99.90
52643;DHT22;38531;53.296;6.614;2022-11-23T05:05:40;7.60;99.90
52643;DHT22;38531;53.296;6.614;2022-11-23T05:08:07;8.50;99.90
52643;DHT22;38531;53.296;6.614;2022-11-23T05:10:33;7.90;99.90
52643;DHT22;38531;53.296;6.614;2022-11-23T05:12:58;8.10;99.90
52643;DHT22;38531;53.296;6.614;2022-11-23T05:15:24;7.70;99.90
52643;DHT22;38531;53.296;6.614;2022-11-23T05:17:50;7.40;99.90
52643;DHT22;38531;53.296;6.614;2022-11-23T05:20:16;7.40;99.90
52643;DHT22;38531;53.296;6.614;2022-11-23T05:22:41;7.40;99.90
52643;DHT22;38531;53.296;6.614;2022-11-23T05:25:08;8.10;99.90
52643;DHT22;38531;53.296;6.614;2022-11-23T05:27:34;7.40;99.90
52643;DHT22;38531;53.296;6.614;2022-11-23T05:29:59;7.40;99.90
52643;DHT22;38531;53.296;6.614;2022-11-23T05:32:25;7.80;99.90
52643;DHT22;38531;53.296;6.614;2022-11-23T05:34:51;8.10;99.90
52643;DHT22;38531;53.296;6.614;2022-11-23T05:37:17;7.40;99.90
52643;DHT22;38531;53.296;6.614;2022-11-23T05:39:43;7.40;99.90
52643;DHT22;38531;53.296;6.614;2022-11-23T05:42:08;8.30;99.90
52643;DHT22;38531;53.296;6.614;2022-11-23T05:44:34;8.10;99.90
52643;DHT22;38531;53.296;6.614;2022-11-23T05:46:59;7.00;99.90
52643;DHT22;38531;53.296;6.614;2022-11-23T05:49:25;7.70;99.90
52643;DHT22;38531;53.296;6.614;2022-11-23T05:51:51;7.90;99.90
52643;DHT22;38531;53.296;6.614;2022-11-23T05:54:17;7.70;99.90
52643;DHT22;38531;53.296;6.614;2022-11-23T05:56:43;7.50;99.90
52643;DHT22;38531;53.296;6.614;2022-11-23T05:59:10;7.50;99.90
52643;DHT22;38531;53.296;6.614;2022-11-23T06:01:36;7.50;99.90
52643;DHT22;38531;53.296;6.614;2022-11-23T06:04:02;8.30;99.90
52643;DHT22;38531;53.296;6.614;2022-11-23T06:06:28;7.50;99.90
52643;DHT22;38531;53.296;6.614;2022-11-23T06:08:53;6.80;99.90
52643;DHT22;38531;53.296;6.614;2022-11-23T06:11:19;8.40;99.90
52643;DHT22;38531;53.296;6.614;2022-11-23T06:13:48;8.50;99.90
52643;DHT22;38531;53.296;6.614;2022-11-23T06:16:14;8.60;99.90
52643;DHT22;38531;53.296;6.614;2022-11-23T06:18:39;8.10;99.90
52643;DHT22;38531;53.296;6.614;2022-11-23T06:21:05;7.70;99.90
52643;DHT22;38531;53.296;6.614;2022-11-23T06:23:31;8.50;99.90
52643;DHT22;38531;53.296;6.614;2022-11-23T06:26:00;7.60;99.90
52643;DHT22;38531;53.296;6.614;2022-11-23T06:28:26;8.40;99.90
52643;DHT22;38531;53.296;6.614;2022-11-23T06:30:53;8.50;99.90
52643;DHT22;38531;53.296;6.614;2022-11-23T06:33:20;8.10;99.90
52643;DHT22;38531;53.296;6.614;2022-11-23T06:35:53;8.00;99.90
52643;DHT22;38531;53.296;6.614;2022-11-23T06:38:19;8.00;99.90
52643;DHT22;38531;53.296;6.614;2022-11-23T06:40:44;8.70;99.90
52643;DHT22;38531;53.296;6.614;2022-11-23T06:43:10;7.70;99.90
52643;DHT22;38531;53.296;6.614;2022-11-23T06:45:36;7.50;99.90
52643;DHT22;38531;53.296;6.614;2022-11-23T06:48:02;8.40;99.90
52643;DHT22;38531;53.296;6.614;2022-11-23T06:50:27;7.70;99.90
52643;DHT22;38531;53.296;6.614;2022-11-23T06:52:56;7.70;99.90
52643;DHT22;38531;53.296;6.614;2022-11-23T06:55:23;7.70;99.90
52643;DHT22;38531;53.296;6.614;2022-11-23T06:57:49;8.30;99.90
52643;DHT22;38531;53.296;6.614;2022-11-23T07:00:16;7.80;99.90
52643;DHT22;38531;53.296;6.614;2022-11-23T07:02:41;7.70;99.90
52643;DHT22;38531;53.296;6.614;2022-11-23T07:05:07;8.00;99.90
52643;DHT22;38531;53.296;6.614;2022-11-23T07:07:33;7.60;99.90
52643;DHT22;38531;53.296;6.614;2022-11-23T07:09:59;8.60;99.90
52643;DHT22;38531;53.296;6.614;2022-11-23T07:12:25;8.30;99.90
52643;DHT22;38531;53.296;6.614;2022-11-23T07:14:51;8.50;99.90
52643;DHT22;38531;53.296;6.614;2022-11-23T07:17:16;8.50;99.90
52643;DHT22;38531;53.296;6.614;2022-11-23T07:19:42;7.90;99.90
52643;DHT22;38531;53.296;6.614;2022-11-23T07:22:08;7.40;99.90
52643;DHT22;38531;53.296;6.614;2022-11-23T07:24:33;7.60;99.90
52643;DHT22;38531;53.296;6.614;2022-11-23T07:26:59;8.00;99.90
52643;DHT22;38531;53.296;6.614;2022-11-23T07:29:25;7.80;99.90
52643;DHT22;38531;53.296;6.614;2022-11-23T07:31:51;7.40;99.90
52643;DHT22;38531;53.296;6.614;2022-11-23T07:34:17;8.20;99.90
52643;DHT22;38531;53.296;6.614;2022-11-23T07:36:43;7.60;99.90
52643;DHT22;38531;53.296;6.614;2022-11-23T07:39:08;8.30;99.90
52643;DHT22;38531;53.296;6.614;2022-11-23T07:41:34;7.60;99.90
52643;DHT22;38531;53.296;6.614;2022-11-23T07:44:00;7.60;99.90
52643;DHT22;38531;53.296;6.614;2022-11-23T07:46:25;8.20;99.90
52643;DHT22;38531;53.296;6.614;2022-11-23T07:48:51;8.00;99.90
52643;DHT22;38531;53.296;6.614;2022-11-23T07:51:19;6.40;99.90
52643;DHT22;38531;53.296;6.614;2022-11-23T07:53:45;8.20;99.90
52643;DHT22;38531;53.296;6.614;2022-11-23T07:56:10;7.60;99.90
52643;DHT22;38531;53.296;6.614;2022-11-23T07:58:36;8.20;99.90
52643;DHT22;38531;53.296;6.614;2022-11-23T08:01:02;7.70;99.90
52643;DHT22;38531;53.296;6.614;2022-11-23T08:03:28;7.60;99.90
52643;DHT22;38531;53.296;6.614;2022-11-23T08:05:54;7.60;99.90
52643;DHT22;38531;53.296;6.614;2022-11-23T08:08:19;7.90;99.90
52643;DHT22;38531;53.296;6.614;2022-11-23T08:10:45;8.40;99.90
52643;DHT22;38531;53.296;6.614;2022-11-23T08:13:11;7.80;99.90
52643;DHT22;38531;53.296;6.614;2022-11-23T08:15:36;7.70;99.90
52643;DHT22;38531;53.296;6.614;2022-11-23T08:18:03;8.60;99.90
52643;DHT22;38531;53.296;6.614;2022-11-23T08:20:29;7.70;99.90
52643;DHT22;38531;53.296;6.614;2022-11-23T08:22:56;7.60;99.90
52643;DHT22;38531;53.296;6.614;2022-11-23T08:25:26;8.20;99.90
52643;DHT22;38531;53.296;6.614;2022-11-23T08:27:57;7.70;99.90
52643;DHT22;38531;53.296;6.614;2022-11-23T08:30:24;7.90;99.90
52643;DHT22;38531;53.296;6.614;2022-11-23T08:32:50;8.40;99.90
52643;DHT22;38531;53.296;6.614;2022-11-23T08:35:15;7.70;99.90
52643;DHT22;38531;53.296;6.614;2022-11-23T08:37:41;6.90;99.90
52643;DHT22;38531;53.296;6.614;2022-11-23T08:40:09;8.70;99.90
52643;DHT22;38531;53.296;6.614;2022-11-23T08:42:38;7.80;99.90
52643;DHT22;38531;53.296;6.614;2022-11-23T08:45:04;8.50;99.90
52643;DHT22;38531;53.296;6.614;2022-11-23T08:47:31;7.80;99.90
52643;DHT22;38531;53.296;6.614;2022-11-23T08:49:58;7.90;99.90
52643;DHT22;38531;53.296;6.614;2022-11-23T08:52:23;7.90;99.90
52643;DHT22;38531;53.296;6.614;2022-11-23T08:54:50;8.10;99.90
52643;DHT22;38531;53.296;6.614;2022-11-23T08:57:15;7.90;99.90
52643;DHT22;38531;53.296;6.614;2022-11-23T08:59:41;7.90;99.90
52643;DHT22;38531;53.296;6.614;2022-11-23T09:02:12;7.90;99.90
52643;DHT22;38531;53.296;6.614;2022-11-23T09:04:39;7.90;99.90
52643;DHT22;38531;53.296;6.614;2022-11-23T09:07:05;7.90;99.90
52643;DHT22;38531;53.296;6.614;2022-11-23T09:09:31;8.50;99.90
52643;DHT22;38531;53.296;6.614;2022-11-23T09:11:57;7.90;99.90
52643;DHT22;38531;53.296;6.614;2022-11-23T09:14:22;8.40;99.90
52643;DHT22;38531;53.296;6.614;2022-11-23T09:16:48;8.40;99.90
52643;DHT22;38531;53.296;6.614;2022-11-23T09:19:14;8.10;99.90
52643;DHT22;38531;53.296;6.614;2022-11-23T09:21:40;8.50;99.90
52643;DHT22;38531;53.296;6.614;2022-11-23T09:24:09;8.60;99.90
52643;DHT22;38531;53.296;6.614;2022-11-23T09:26:36;8.90;99.90
52643;DHT22;38531;53.296;6.614;2022-11-23T09:29:03;9.00;99.90
52643;DHT22;38531;53.296;6.614;2022-11-23T09:31:29;8.30;99.90
52643;DHT22;38531;53.296;6.614;2022-11-23T09:33:55;8.20;99.90
52643;DHT22;38531;53.296;6.614;2022-11-23T09:36:21;8.30;99.90
52643;DHT22;38531;53.296;6.614;2022-11-23T09:38:48;8.90;99.90
52643;DHT22;38531;53.296;6.614;2022-11-23T09:46:57;8.50;99.90
52643;DHT22;38531;53.296;6.614;2022-11-23T09:49:51;8.40;99.90
52643;DHT22;38531;53.296;6.614;2022-11-23T09:52:22;8.50;99.90
52643;DHT22;38531;53.296;6.614;2022-11-23T09:54:54;9.50;99.90
52643;DHT22;38531;53.296;6.614;2022-11-23T09:57:24;8.60;99.90
52643;DHT22;38531;53.296;6.614;2022-11-23T10:00:16;9.30;99.90
52643;DHT22;38531;53.296;6.614;2022-11-23T10:02:43;8.80;99.90
52643;DHT22;38531;53.296;6.614;2022-11-23T10:05:16;9.10;99.90
52643;DHT22;38531;53.296;6.614;2022-11-23T10:07:57;9.80;99.90
52643;DHT22;38531;53.296;6.614;2022-11-23T10:10:43;8.90;99.90
52643;DHT22;38531;53.296;6.614;2022-11-23T10:13:23;8.90;99.90
52643;DHT22;38531;53.296;6.614;2022-11-23T10:21:53;9.00;99.90
52643;DHT22;38531;53.296;6.614;2022-11-23T10:24:25;9.00;99.90
52643;DHT22;38531;53.296;6.614;2022-11-23T10:26:53;9.10;99.90
52643;DHT22;38531;53.296;6.614;2022-11-23T10:29:36;9.90;99.90
52643;DHT22;38531;53.296;6.614;2022-11-23T10:32:04;9.00;99.90
52643;DHT22;38531;53.296;6.614;2022-11-23T10:37:24;9.00;99.90
52643;DHT22;38531;53.296;6.614;2022-11-23T10:39:50;9.00;99.90
52643;DHT22;38531;53.296;6.614;2022-11-23T10:42:40;9.30;99.90
52643;DHT22;38531;53.296;6.614;2022-11-23T10:45:18;9.00;99.90
52643;DHT22;38531;53.296;6.614;2022-11-23T10:47:52;9.10;99.90
52643;DHT22;38531;53.296;6.614;2022-11-23T10:52:59;9.00;99.90
52643;DHT22;38531;53.296;6.614;2022-11-23T10:55:28;9.80;99.90
52643;DHT22;38531;53.296;6.614;2022-11-23T10:57:54;9.50;99.90
52643;DHT22;38531;53.296;6.614;2022-11-23T11:00:21;9.30;99.90
52643;DHT22;38531;53.296;6.614;2022-11-23T11:02:50;9.00;99.90
52643;DHT22;38531;53.296;6.614;2022-11-23T11:07:54;8.90;99.90
52643;DHT22;38531;53.296;6.614;2022-11-23T11:10:43;8.90;99.90
52643;DHT22;38531;53.296;6.614;2022-11-23T11:13:43;8.90;99.90
52643;DHT22;38531;53.296;6.614;2022-11-23T11:16:25;8.90;99.90
52643;DHT22;38531;53.296;6.614;2022-11-23T11:18:54;8.90;99.90
52643;DHT22;38531;53.296;6.614;2022-11-23T11:21:33;8.90;99.90
52643;DHT22;38531;53.296;6.614;2022-11-23T11:24:04;9.00;99.90
52643;DHT22;38531;53.296;6.614;2022-11-23T11:26:34;9.00;99.90
52643;DHT22;38531;53.296;6.614;2022-11-23T11:29:02;9.10;99.90
52643;DHT22;38531;53.296;6.614;2022-11-23T11:36:55;9.10;99.90
52643;DHT22;38531;53.296;6.614;2022-11-23T11:39:31;9.90;99.90
52643;DHT22;38531;53.296;6.614;2022-11-23T11:42:01;9.00;99.90
52643;DHT22;38531;53.296;6.614;2022-11-23T11:44:32;9.20;99.90
52643;DHT22;38531;53.296;6.614;2022-11-23T11:47:05;9.30;99.90
52643;DHT22;38531;53.296;6.614;2022-11-23T11:49:40;9.40;99.90
52643;DHT22;38531;53.296;6.614;2022-11-23T11:52:13;9.70;99.90
52643;DHT22;38531;53.296;6.614;2022-11-23T11:57:41;9.50;99.90
52643;DHT22;38531;53.296;6.614;2022-11-23T12:00:13;9.50;99.90
52643;DHT22;38531;53.296;6.614;2022-11-23T12:11:00;10.30;99.90
52643;DHT22;38531;53.296;6.614;2022-11-23T12:13:33;10.60;99.90
52643;DHT22;38531;53.296;6.614;2022-11-23T12:16:11;9.70;99.90
52643;DHT22;38531;53.296;6.614;2022-11-23T12:30:23;9.80;99.90
52643;DHT22;38531;53.296;6.614;2022-11-23T12:49:54;10.50;99.90
52643;DHT22;38531;53.296;6.614;2022-11-23T13:00:42;9.80;99.90
52643;DHT22;38531;53.296;6.614;2022-11-23T13:15:01;9.70;99.90
52643;DHT22;38531;53.296;6.614;2022-11-23T13:17:56;9.80;99.90
52643;DHT22;38531;53.296;6.614;2022-11-23T13:20:48;10.00;99.90
52643;DHT22;38531;53.296;6.614;2022-11-23T13:23:16;9.90;99.90
52643;DHT22;38531;53.296;6.614;2022-11-23T13:26:18;9.90;99.90
52643;DHT22;38531;53.296;6.614;2022-11-23T13:28:46;10.00;99.90
52643;DHT22;38531;53.296;6.614;2022-11-23T13:33:43;10.70;99.90
52643;DHT22;38531;53.296;6.614;2022-11-23T13:36:11;10.30;99.90
52643;DHT22;38531;53.296;6.614;2022-11-23T13:38:42;10.00;99.90
52643;DHT22;38531;53.296;6.614;2022-11-23T13:44:26;9.90;99.90
52643;DHT22;38531;53.296;6.614;2022-11-23T13:49:45;9.70;99.90
52643;DHT22;38531;53.296;6.614;2022-11-23T13:55:02;9.60;99.90
52643;DHT22;38531;53.296;6.614;2022-11-23T13:57:29;9.60;99.90
52643;DHT22;38531;53.296;6.614;2022-11-23T14:06:04;9.40;99.90
52643;DHT22;38531;53.296;6.614;2022-11-23T14:08:36;9.30;99.90
52643;DHT22;38531;53.296;6.614;2022-11-23T14:11:11;9.20;99.90
52643;DHT22;38531;53.296;6.614;2022-11-23T14:13:40;9.10;99.90
52643;DHT22;38531;53.296;6.614;2022-11-23T14:16:12;9.10;99.90
52643;DHT22;38531;53.296;6.614;2022-11-23T14:24:01;8.90;99.90
52643;DHT22;38531;53.296;6.614;2022-11-23T14:32:31;8.60;99.90
52643;DHT22;38531;53.296;6.614;2022-11-23T14:35:19;8.60;99.90
52643;DHT22;38531;53.296;6.614;2022-11-23T14:40:47;8.40;99.90
52643;DHT22;38531;53.296;6.614;2022-11-23T14:43:17;8.40;99.90
52643;DHT22;38531;53.296;6.614;2022-11-23T14:45:45;8.50;99.90
52643;DHT22;38531;53.296;6.614;2022-11-23T14:48:28;8.80;99.90
52643;DHT22;38531;53.296;6.614;2022-11-23T14:51:09;8.10;99.90
52643;DHT22;38531;53.296;6.614;2022-11-23T14:53:41;8.00;99.90
52643;DHT22;38531;53.296;6.614;2022-11-23T14:59:09;7.90;99.90
52643;DHT22;38531;53.296;6.614;2022-11-23T15:01:44;7.80;99.90
52643;DHT22;38531;53.296;6.614;2022-11-23T15:07:26;7.70;99.90
52643;DHT22;38531;53.296;6.614;2022-11-23T15:10:05;8.10;99.90
52643;DHT22;38531;53.296;6.614;2022-11-23T15:12:43;7.50;99.90
52643;DHT22;38531;53.296;6.614;2022-11-23T15:18:09;7.90;99.90
52643;DHT22;38531;53.296;6.614;2022-11-23T15:20:43;7.30;99.90
52643;DHT22;38531;53.296;6.614;2022-11-23T15:23:21;8.20;99.90
52643;DHT22;38531;53.296;6.614;2022-11-23T15:26:02;7.30;99.90
52643;DHT22;38531;53.296;6.614;2022-11-23T15:28:30;7.30;99.90
52643;DHT22;38531;53.296;6.614;2022-11-23T15:30:58;7.50;99.90
52643;DHT22;38531;53.296;6.614;2022-11-23T15:33:24;7.30;99.90
52643;DHT22;38531;53.296;6.614;2022-11-23T15:35:51;7.30;99.90
52643;DHT22;38531;53.296;6.614;2022-11-23T15:38:18;7.00;99.90
52643;DHT22;38531;53.296;6.614;2022-11-23T15:40:47;7.60;99.90
52643;DHT22;38531;53.296;6.614;2022-11-23T15:43:14;6.40;99.90
52643;DHT22;38531;53.296;6.614;2022-11-23T15:45:59;7.40;99.90
52643;DHT22;38531;53.296;6.614;2022-11-23T15:48:27;7.00;99.90
52643;DHT22;38531;53.296;6.614;2022-11-23T15:51:00;7.40;99.90
52643;DHT22;38531;53.296;6.614;2022-11-23T15:56:21;7.10;99.90
52643;DHT22;38531;53.296;6.614;2022-11-23T15:58:49;7.20;99.90
52643;DHT22;38531;53.296;6.614;2022-11-23T16:01:15;7.20;99.90
52643;DHT22;38531;53.296;6.614;2022-11-23T16:03:48;7.60;99.90
52643;DHT22;38531;53.296;6.614;2022-11-23T16:06:47;8.20;99.90
52643;DHT22;38531;53.296;6.614;2022-11-23T16:11:58;7.40;99.90
52643;DHT22;38531;53.296;6.614;2022-11-23T16:14:28;7.50;99.90
52643;DHT22;38531;53.296;6.614;2022-11-23T16:17:13;7.50;99.90
52643;DHT22;38531;53.296;6.614;2022-11-23T16:19:46;7.60;99.90
52643;DHT22;38531;53.296;6.614;2022-11-23T16:22:26;7.60;99.90
52643;DHT22;38531;53.296;6.614;2022-11-23T16:25:14;7.60;99.90
52643;DHT22;38531;53.296;6.614;2022-11-23T16:27:41;7.60;99.90
52643;DHT22;38531;53.296;6.614;2022-11-23T16:30:24;7.60;99.90
52643;DHT22;38531;53.296;6.614;2022-11-23T16:32:50;7.60;99.90
52643;DHT22;38531;53.296;6.614;2022-11-23T16:35:18;7.70;99.90
52643;DHT22;38531;53.296;6.614;2022-11-23T16:37:44;7.50;99.90
52643;DHT22;38531;53.296;6.614;2022-11-23T16:40:10;7.50;99.90
52643;DHT22;38531;53.296;6.614;2022-11-23T16:42:36;7.60;99.90
52643;DHT22;38531;53.296;6.614;2022-11-23T16:45:02;7.80;99.90
52643;DHT22;38531;53.296;6.614;2022-11-23T16:47:28;7.60;99.90
52643;DHT22;38531;53.296;6.614;2022-11-23T16:49:55;7.60;99.90
52643;DHT22;38531;53.296;6.614;2022-11-23T16:52:21;7.50;99.90
52643;DHT22;38531;53.296;6.614;2022-11-23T16:54:48;7.50;99.90
52643;DHT22;38531;53.296;6.614;2022-11-23T16:57:28;7.60;99.90
52643;DHT22;38531;53.296;6.614;2022-11-23T16:59:55;8.10;99.90
52643;DHT22;38531;53.296;6.614;2022-11-23T17:02:21;8.40;99.90
52643;DHT22;38531;53.296;6.614;2022-11-23T17:04:47;7.60;99.90
52643;DHT22;38531;53.296;6.614;2022-11-23T17:07:12;8.20;99.90
52643;DHT22;38531;53.296;6.614;2022-11-23T17:09:38;8.50;99.90
52643;DHT22;38531;53.296;6.614;2022-11-23T17:12:06;7.90;99.90
52643;DHT22;38531;53.296;6.614;2022-11-23T17:14:37;7.60;99.90
52643;DHT22;38531;53.296;6.614;2022-11-23T17:17:03;8.70;99.90
52643;DHT22;38531;53.296;6.614;2022-11-23T17:19:29;7.60;99.90
52643;DHT22;38531;53.296;6.614;2022-11-23T17:21:55;7.70;99.90
52643;DHT22;38531;53.296;6.614;2022-11-23T17:24:21;7.60;99.90
52643;DHT22;38531;53.296;6.614;2022-11-23T17:26:50;8.60;99.90
52643;DHT22;38531;53.296;6.614;2022-11-23T17:29:18;7.60;99.90
52643;DHT22;38531;53.296;6.614;2022-11-23T17:31:45;8.10;99.90
52643;DHT22;38531;53.296;6.614;2022-11-23T17:34:12;7.60;99.90
52643;DHT22;38531;53.296;6.614;2022-11-23T17:36:39;7.60;99.90
52643;DHT22;38531;53.296;6.614;2022-11-23T17:39:05;8.00;99.90
52643;DHT22;38531;53.296;6.614;2022-11-23T17:41:31;8.40;99.90
52643;DHT22;38531;53.296;6.614;2022-11-23T17:43:56;7.60;99.90
52643;DHT22;38531;53.296;6.614;2022-11-23T17:46:25;8.20;99.90
52643;DHT22;38531;53.296;6.614;2022-11-23T17:48:56;8.00;99.90
52643;DHT22;38531;53.296;6.614;2022-11-23T17:51:23;7.80;99.90
52643;DHT22;38531;53.296;6.614;2022-11-23T17:53:49;7.70;99.90
52643;DHT22;38531;53.296;6.614;2022-11-23T17:56:21;8.20;99.90
52643;DHT22;38531;53.296;6.614;2022-11-23T17:58:47;7.90;99.90
52643;DHT22;38531;53.296;6.614;2022-11-23T18:01:14;7.70;99.90
52643;DHT22;38531;53.296;6.614;2022-11-23T18:03:41;8.10;99.90
52643;DHT22;38531;53.296;6.614;2022-11-23T18:06:34;8.00;99.90
52643;DHT22;38531;53.296;6.614;2022-11-23T18:08:59;7.60;99.90